Time;durP1;ratioP1;P1;durP2;ratioP2;P2;SDS_P1;SDS_P2;PMS_P1;PMS_P2;Temp;Humidity;BMP_temperature;BMP_pressure;BME280_temperature;BME280_humidity;BME280_pressure;Samples;Min_cycle;Max_cycle;Signal;HPM_P1;HPM_P2
2021/04/27 00:01:06;;;;;;;3.83;1.97;;;6.10;78.80;;;;;;5005763;28;20481;-55
2021/04/27 00:03:33;;;;;;;3.20;1.30;;;6.10;79.10;;;;;;5005933;28;20453;-52
2021/04/27 00:05:59;;;;;;;2.57;2.00;;;6.10;79.40;;;;;;5005828;28;20453;-48
2021/04/27 00:08:26;;;;;;;2.50;1.67;;;6.10;79.60;;;;;;5006076;28;20850;-50
2021/04/27 00:10:52;;;;;;;4.27;1.60;;;6.10;79.80;;;;;;5005964;28;20453;-53
2021/04/27 00:13:19;;;;;;;1.83;1.23;;;6.10;79.50;;;;;;5005459;28;20446;-52
2021/04/27 00:15:45;;;;;;;3.30;2.00;;;6.10;79.50;;;;;;5005497;28;20450;-52
2021/04/27 00:18:11;;;;;;;2.77;1.73;;;6.00;79.40;;;;;;5006286;28;20442;-54
2021/04/27 00:20:37;;;;;;;3.93;2.10;;;6.00;79.10;;;;;;5006080;28;20867;-54
2021/04/27 00:23:04;;;;;;;3.43;1.83;;;6.00;78.70;;;;;;5005982;28;20458;-53
2021/04/27 00:25:32;;;;;;;1.63;1.30;;;5.90;78.80;;;;;;5005388;28;20805;-50
2021/04/27 00:27:58;;;;;;;2.60;1.50;;;6.00;79.20;;;;;;5005599;28;20974;-52
2021/04/27 00:30:27;;;;;;;4.17;1.80;;;6.00;79.30;;;;;;5005841;28;20461;-54
2021/04/27 00:32:54;;;;;;;3.40;1.40;;;6.00;79.30;;;;;;5006268;28;20494;-53
2021/04/27 00:35:20;;;;;;;5.30;2.00;;;5.90;79.10;;;;;;5005973;28;20446;-52
2021/04/27 00:37:47;;;;;;;1.93;1.53;;;5.90;79.00;;;;;;5006225;28;20481;-52
2021/04/27 00:40:15;;;;;;;3.30;1.40;;;5.90;78.90;;;;;;5006445;28;20454;-53
2021/04/27 00:42:46;;;;;;;4.10;2.23;;;5.90;79.70;;;;;;5006252;28;20474;-51
2021/04/27 00:45:14;;;;;;;3.73;2.10;;;5.90;79.50;;;;;;5006352;28;20450;-49
2021/04/27 00:47:40;;;;;;;2.60;1.80;;;5.90;79.80;;;;;;5006755;28;20450;-53
2021/04/27 00:50:12;;;;;;;2.70;1.67;;;5.90;79.70;;;;;;5006385;28;20779;-49
2021/04/27 00:52:39;;;;;;;4.00;1.80;;;5.80;79.30;;;;;;5006072;28;20442;-53
2021/04/27 00:55:07;;;;;;;3.30;1.83;;;5.90;79.30;;;;;;5005265;28;20457;-55
2021/04/27 00:57:34;;;;;;;2.43;1.33;;;5.90;77.60;;;;;;5005241;28;20465;-53
2021/04/27 01:00:01;;;;;;;3.27;1.63;;;5.90;76.90;;;;;;5005141;28;20454;-56
2021/04/27 01:02:28;;;;;;;3.97;2.00;;;5.80;76.70;;;;;;5004897;28;20959;-54
2021/04/27 01:04:55;;;;;;;2.13;1.57;;;5.80;76.20;;;;;;5005441;28;20982;-56
2021/04/27 01:07:22;;;;;;;2.07;1.30;;;5.90;75.80;;;;;;5004810;28;20516;-54
2021/04/27 01:09:55;;;;;;;6.67;1.93;;;5.90;75.80;;;;;;5004956;28;20457;-54
2021/04/27 01:12:27;;;;;;;3.60;2.20;;;5.90;75.10;;;;;;5004662;28;20430;-51
2021/04/27 01:15:02;;;;;;;8.83;1.60;;;5.90;75.10;;;;;;5005838;28;20464;-55
2021/04/27 01:17:30;;;;;;;5.20;1.77;;;5.90;74.90;;;;;;5004972;28;20462;-53
2021/04/27 01:20:03;;;;;;;4.10;1.77;;;5.80;75.90;;;;;;5005015;28;20489;-51
2021/04/27 01:22:37;;;;;;;1.77;1.57;;;5.80;75.30;;;;;;5005099;28;20490;-52
2021/04/27 01:25:08;;;;;;;3.60;1.90;;;5.80;75.90;;;;;;5004541;28;20457;-53
2021/04/27 01:27:35;;;;;;;5.47;1.80;;;5.70;76.40;;;;;;5004909;28;20469;-54
2021/04/27 01:30:04;;;;;;;3.20;2.10;;;5.70;77.20;;;;;;5005909;28;20776;-54
2021/04/27 01:32:31;;;;;;;5.63;2.73;;;5.60;76.70;;;;;;5005788;28;20462;-48
2021/04/27 01:34:58;;;;;;;7.50;4.63;;;5.70;76.40;;;;;;5006090;28;20558;-51
2021/04/27 01:37:25;;;;;;;4.50;2.80;;;5.60;76.50;;;;;;5004929;28;20445;-55
2021/04/27 01:39:52;;;;;;;6.50;2.13;;;5.70;76.40;;;;;;5006111;28;20462;-49
2021/04/27 01:42:19;;;;;;;4.10;2.17;;;5.60;75.60;;;;;;5006111;28;20509;-50
2021/04/27 01:44:46;;;;;;;8.03;2.10;;;5.50;75.90;;;;;;5005718;28;20505;-52
2021/04/27 01:47:13;;;;;;;5.63;2.17;;;5.50;76.00;;;;;;5005223;28;20458;-48
2021/04/27 01:49:42;;;;;;;5.93;2.03;;;5.50;75.50;;;;;;5006142;28;20442;-54
2021/04/27 01:52:08;;;;;;;4.20;2.00;;;5.60;74.80;;;;;;5005707;28;20438;-54
2021/04/27 01:54:35;;;;;;;4.40;2.40;;;5.50;74.20;;;;;;5005784;28;20454;-51
2021/04/27 01:57:01;;;;;;;3.50;2.00;;;5.50;73.80;;;;;;5006721;28;20748;-49
2021/04/27 01:59:27;;;;;;;6.30;2.10;;;5.60;74.10;;;;;;5006234;28;20461;-55
2021/04/27 02:01:54;;;;;;;4.27;2.50;;;5.60;73.00;;;;;;5006877;28;20489;-49
2021/04/27 02:04:21;;;;;;;3.30;1.63;;;5.50;72.90;;;;;;5005969;28;20442;-49
2021/04/27 02:06:47;;;;;;;5.53;2.47;;;5.50;72.60;;;;;;5006888;28;20537;-55
2021/04/27 02:09:15;;;;;;;4.20;2.33;;;5.40;72.40;;;;;;5006520;28;20438;-53
2021/04/27 02:11:43;;;;;;;5.50;2.20;;;5.40;71.90;;;;;;5005668;28;20461;-53
2021/04/27 02:14:12;;;;;;;4.53;2.13;;;5.40;71.60;;;;;;5005806;28;20462;-55
2021/04/27 02:16:45;;;;;;;3.93;1.83;;;5.40;72.20;;;;;;5004995;28;20461;-53
2021/04/27 02:19:13;;;;;;;4.27;2.27;;;5.50;71.00;;;;;;5005491;28;20456;-51
2021/04/27 02:21:40;;;;;;;3.80;1.80;;;5.40;71.40;;;;;;5005629;28;20485;-53
2021/04/27 02:24:08;;;;;;;4.83;2.30;;;5.40;71.30;;;;;;5006079;28;20457;-54
2021/04/27 02:26:35;;;;;;;5.43;2.07;;;5.30;70.90;;;;;;5005740;28;20454;-54
2021/04/27 02:29:03;;;;;;;4.17;1.70;;;5.30;71.00;;;;;;5005394;28;20986;-53
2021/04/27 02:31:30;;;;;;;13.03;3.30;;;5.30;71.20;;;;;;5005792;28;20446;-53
2021/04/27 02:33:56;;;;;;;3.93;1.67;;;5.20;71.20;;;;;;5005551;28;20481;-51
2021/04/27 02:36:23;;;;;;;2.90;1.80;;;5.20;71.30;;;;;;5004675;28;20450;-55
2021/04/27 02:38:49;;;;;;;3.27;2.00;;;5.20;71.30;;;;;;5005718;28;20749;-53
2021/04/27 02:41:15;;;;;;;4.30;2.00;;;5.20;71.30;;;;;;5005837;28;20477;-53
2021/04/27 02:43:42;;;;;;;2.37;1.80;;;5.20;70.80;;;;;;5005074;28;20450;-56
2021/04/27 02:46:08;;;;;;;4.50;1.90;;;5.20;70.70;;;;;;5005472;28;20450;-55
2021/04/27 02:48:34;;;;;;;4.00;2.03;;;5.20;70.70;;;;;;5006250;28;20449;-54
2021/04/27 02:51:02;;;;;;;3.77;1.73;;;5.20;70.60;;;;;;5005894;28;20457;-53
2021/04/27 02:53:29;;;;;;;3.10;1.67;;;5.10;71.10;;;;;;5004708;28;20446;-53
2021/04/27 02:55:57;;;;;;;5.60;2.13;;;5.10;71.30;;;;;;5005697;28;20458;-56
2021/04/27 02:58:23;;;;;;;4.93;2.00;;;5.10;71.60;;;;;;5006406;28;20462;-51
2021/04/27 03:00:50;;;;;;;5.80;2.13;;;5.10;71.90;;;;;;5006162;28;20442;-52
2021/04/27 03:03:17;;;;;;;9.30;2.20;;;5.10;71.80;;;;;;5006541;28;20550;-52
2021/04/27 03:05:43;;;;;;;7.13;2.23;;;5.10;71.90;;;;;;5005550;28;20834;-55
2021/04/27 03:08:09;;;;;;;2.83;1.80;;;5.00;72.20;;;;;;5006452;28;20915;-52
2021/04/27 03:10:36;;;;;;;3.43;1.70;;;5.00;72.60;;;;;;5005876;28;20931;-53
2021/04/27 03:13:03;;;;;;;3.03;2.17;;;5.00;72.90;;;;;;5005699;28;20478;-51
2021/04/27 03:15:30;;;;;;;5.10;2.80;;;4.90;72.70;;;;;;5005898;28;20454;-56
2021/04/27 03:17:56;;;;;;;3.20;1.93;;;5.00;72.60;;;;;;5005812;28;20899;-53
2021/04/27 03:20:22;;;;;;;2.87;1.80;;;5.00;72.50;;;;;;5006322;28;20449;-52
2021/04/27 03:22:48;;;;;;;4.57;2.00;;;4.90;72.40;;;;;;5006924;28;20821;-54
2021/04/27 03:25:15;;;;;;;5.50;2.07;;;4.90;72.90;;;;;;5006986;28;20454;-49
2021/04/27 03:27:43;;;;;;;3.80;1.93;;;4.90;72.70;;;;;;5020192;28;20476;-53
2021/04/27 03:30:11;;;;;;;4.20;2.43;;;4.90;72.70;;;;;;5027097;28;20452;-51
2021/04/27 03:32:37;;;;;;;3.80;2.00;;;4.90;72.70;;;;;;5026665;28;20472;-54
2021/04/27 03:35:04;;;;;;;8.87;2.97;;;4.90;72.60;;;;;;5025328;28;20956;-50
2021/04/27 03:37:31;;;;;;;6.00;2.57;;;4.90;72.50;;;;;;5026207;28;20441;-53
2021/04/27 03:39:57;;;;;;;3.40;2.57;;;4.80;72.70;;;;;;5024920;28;20465;-50
2021/04/27 03:42:23;;;;;;;3.53;2.00;;;4.80;72.70;;;;;;5025095;28;20485;-51
2021/04/27 03:44:50;;;;;;;4.37;2.23;;;4.80;72.40;;;;;;5025941;28;20452;-56
2021/04/27 03:47:16;;;;;;;3.43;2.13;;;4.80;72.60;;;;;;5025717;28;20453;-54
2021/04/27 03:49:43;;;;;;;5.00;2.97;;;4.80;72.50;;;;;;5029554;28;20445;-55
2021/04/27 03:52:09;;;;;;;3.10;1.83;;;4.80;72.40;;;;;;5029655;28;20452;-56
2021/04/27 03:54:35;;;;;;;2.37;1.73;;;4.80;73.30;;;;;;5029548;28;20445;-52
2021/04/27 03:57:02;;;;;;;6.70;1.73;;;4.80;72.60;;;;;;5029992;28;20961;-55
2021/04/27 03:59:28;;;;;;;2.90;2.10;;;4.80;72.80;;;;;;5029623;28;20449;-54
2021/04/27 04:01:55;;;;;;;4.50;2.13;;;4.80;72.80;;;;;;5029428;28;20492;-54
2021/04/27 04:04:28;;;;;;;13.40;2.20;;;4.80;73.10;;;;;;5018218;28;20493;-56
2021/04/27 04:06:55;;;;;;;4.90;2.30;;;4.80;72.90;;;;;;5017222;28;20434;-54
2021/04/27 04:09:21;;;;;;;8.90;2.60;;;4.80;73.10;;;;;;5028692;28;20429;-55
2021/04/27 04:11:48;;;;;;;3.03;2.50;;;4.80;73.70;;;;;;5029184;28;20461;-55
2021/04/27 04:14:14;;;;;;;4.07;2.23;;;4.80;73.90;;;;;;5029244;28;20456;-56
2021/04/27 04:16:40;;;;;;;3.63;2.50;;;4.80;74.10;;;;;;5029535;28;20449;-51
2021/04/27 04:19:07;;;;;;;3.20;2.27;;;4.80;74.10;;;;;;5028633;28;20464;-51
2021/04/27 04:21:33;;;;;;;4.90;2.80;;;4.70;74.00;;;;;;5025727;28;20488;-52
2021/04/27 04:24:00;;;;;;;3.80;1.77;;;4.70;74.20;;;;;;5021405;28;20449;-54
2021/04/27 04:26:26;;;;;;;9.30;2.63;;;4.70;74.50;;;;;;5018727;28;20441;-54
2021/04/27 04:28:57;;;;;;;11.97;2.77;;;4.70;74.40;;;;;;5014976;28;20829;-51
2021/04/27 04:31:24;;;;;;;4.50;1.83;;;4.70;74.40;;;;;;5011601;28;20437;-51
2021/04/27 04:33:50;;;;;;;5.10;2.03;;;4.70;74.40;;;;;;5013484;28;20497;-50
2021/04/27 04:36:17;;;;;;;5.27;2.60;;;4.70;74.40;;;;;;5013875;28;20450;-52
2021/04/27 04:38:43;;;;;;;3.87;2.10;;;4.70;74.40;;;;;;5015833;28;20577;-53
2021/04/27 04:41:10;;;;;;;7.33;3.13;;;4.70;74.00;;;;;;5016525;28;20484;-49
2021/04/27 04:43:36;;;;;;;4.20;2.40;;;4.70;73.90;;;;;;5016284;28;20450;-47
2021/04/27 04:46:03;;;;;;;4.80;2.67;;;4.70;73.60;;;;;;5019196;28;20450;-51
2021/04/27 04:48:31;;;;;;;7.20;2.37;;;4.70;73.80;;;;;;5012767;28;20509;-49
2021/04/27 04:50:57;;;;;;;3.83;3.03;;;4.70;73.90;;;;;;5014264;28;20514;-47
2021/04/27 04:53:24;;;;;;;5.23;2.30;;;4.70;74.10;;;;;;5021368;28;20525;-48
2021/04/27 04:55:50;;;;;;;8.53;2.33;;;4.70;74.00;;;;;;5024396;28;20503;-50
2021/04/27 04:58:16;;;;;;;5.27;2.83;;;4.70;74.20;;;;;;5025044;28;20453;-50
2021/04/27 05:00:42;;;;;;;3.83;2.10;;;4.80;74.60;;;;;;5024848;28;20449;-52
2021/04/27 05:03:09;;;;;;;6.30;3.17;;;4.80;74.70;;;;;;5024540;28;20453;-53
2021/04/27 05:05:35;;;;;;;9.30;3.27;;;4.80;74.80;;;;;;5024196;28;20445;-48
2021/04/27 05:08:08;;;;;;;3.97;2.73;;;4.80;74.70;;;;;;5024745;28;20456;-53
2021/04/27 05:10:35;;;;;;;6.40;3.10;;;4.90;74.90;;;;;;5024620;28;20453;-50
2021/04/27 05:13:02;;;;;;;7.10;2.80;;;4.90;75.20;;;;;;5024380;28;20536;-50
2021/04/27 05:15:28;;;;;;;4.00;2.40;;;4.90;75.20;;;;;;5024314;28;20467;-46
2021/04/27 05:17:54;;;;;;;5.40;3.23;;;4.90;75.50;;;;;;5023450;28;20459;-49
2021/04/27 05:20:24;;;;;;;4.80;2.60;;;4.90;75.20;;;;;;5023590;28;20878;-51
2021/04/27 05:22:51;;;;;;;4.07;3.00;;;5.00;75.00;;;;;;5023858;28;20484;-51
2021/04/27 05:25:18;;;;;;;5.53;2.53;;;5.00;74.90;;;;;;5023861;28;20934;-50
2021/04/27 05:27:45;;;;;;;4.63;2.67;;;5.10;74.70;;;;;;5024233;28;20473;-50
2021/04/27 05:30:12;;;;;;;7.40;3.37;;;5.10;74.90;;;;;;5023078;28;20471;-50
2021/04/27 05:32:38;;;;;;;4.87;2.73;;;5.10;75.00;;;;;;5023176;28;20453;-49
2021/04/27 05:35:07;;;;;;;5.60;3.40;;;5.10;75.20;;;;;;5023251;28;20453;-50
2021/04/27 05:37:33;;;;;;;5.13;3.00;;;5.10;74.90;;;;;;5023324;28;20941;-53
2021/04/27 05:39:59;;;;;;;3.43;2.30;;;5.10;75.10;;;;;;5022545;28;20445;-50
2021/04/27 05:42:26;;;;;;;2.77;2.57;;;5.20;75.70;;;;;;5021810;28;20481;-48
2021/04/27 05:44:53;;;;;;;7.43;3.27;;;5.30;75.60;;;;;;5017568;28;20461;-49
2021/04/27 05:47:43;;;;;;;6.77;3.37;;;5.30;75.30;;;;;;5010183;28;20505;-49
2021/04/27 05:50:10;;;;;;;3.80;2.87;;;5.40;75.50;;;;;;5025572;28;20505;-49
2021/04/27 05:52:37;;;;;;;3.70;2.70;;;5.60;75.20;;;;;;5007347;28;20449;-50
2021/04/27 05:55:04;;;;;;;5.13;3.67;;;5.60;74.90;;;;;;5018330;28;20523;-51
2021/04/27 05:57:31;;;;;;;6.20;2.63;;;5.70;74.50;;;;;;5010583;28;20495;-49
2021/04/27 05:59:58;;;;;;;4.07;2.70;;;5.70;74.10;;;;;;5006341;28;20577;-50
2021/04/27 06:02:25;;;;;;;3.50;3.10;;;5.80;73.80;;;;;;5015519;28;20457;-52
2021/04/27 06:04:53;;;;;;;5.23;2.53;;;5.80;75.20;;;;;;5016056;28;20451;-51
2021/04/27 06:07:19;;;;;;;4.03;2.60;;;5.90;73.90;;;;;;5013624;28;20450;-52
2021/04/27 06:09:45;;;;;;;3.93;2.90;;;6.00;73.10;;;;;;5008183;28;20473;-50
2021/04/27 06:12:12;;;;;;;9.17;2.97;;;6.10;73.50;;;;;;5009859;28;20445;-53
2021/04/27 06:14:38;;;;;;;3.20;2.40;;;6.20;72.10;;;;;;5007433;28;20945;-51
2021/04/27 06:17:05;;;;;;;4.63;2.23;;;6.20;73.30;;;;;;5008156;28;20453;-55
2021/04/27 06:19:33;;;;;;;6.50;2.20;;;6.30;71.90;;;;;;5010985;28;20450;-50
2021/04/27 06:22:00;;;;;;;5.70;2.70;;;6.40;72.90;;;;;;5007634;28;20524;-54
2021/04/27 06:24:27;;;;;;;3.80;1.93;;;6.50;71.60;;;;;;5014085;28;20504;-53
2021/04/27 06:26:53;;;;;;;6.70;2.70;;;6.60;71.00;;;;;;5009773;28;20434;-51
2021/04/27 06:29:19;;;;;;;3.73;2.90;;;6.60;70.20;;;;;;5007586;28;20472;-57
2021/04/27 06:31:45;;;;;;;3.30;2.30;;;6.60;70.00;;;;;;5009691;28;20890;-48
2021/04/27 06:34:12;;;;;;;4.43;2.60;;;6.70;71.20;;;;;;5007615;28;20777;-53
2021/04/27 06:36:38;;;;;;;7.20;3.30;;;6.80;69.40;;;;;;5015073;28;20457;-57
2021/04/27 06:39:06;;;;;;;5.67;3.97;;;6.90;69.20;;;;;;5008324;28;20834;-56
2021/04/27 06:41:33;;;;;;;6.77;3.03;;;7.00;68.70;;;;;;5005113;28;20482;-54
2021/04/27 06:43:59;;;;;;;4.07;2.10;;;7.10;68.30;;;;;;5002451;28;20473;-53
2021/04/27 06:46:25;;;;;;;7.93;2.80;;;7.10;67.70;;;;;;5005844;28;20450;-54
2021/04/27 06:48:52;;;;;;;4.60;2.30;;;7.20;67.30;;;;;;5004474;28;20450;-53
2021/04/27 06:51:19;;;;;;;2.40;1.60;;;7.30;66.90;;;;;;5003714;28;20785;-53
2021/04/27 06:53:46;;;;;;;2.87;2.00;;;7.40;66.60;;;;;;4998096;28;20450;-55
2021/04/27 06:56:12;;;;;;;5.00;2.83;;;7.50;66.40;;;;;;4999616;28;20434;-51
2021/04/27 06:58:38;;;;;;;5.53;2.10;;;7.60;64.70;;;;;;5008051;28;20465;-51
2021/04/27 07:01:05;;;;;;;4.87;2.40;;;7.60;64.80;;;;;;5006984;28;20441;-52
2021/04/27 07:03:31;;;;;;;9.93;3.17;;;7.80;65.30;;;;;;5007080;28;20442;-50
2021/04/27 07:05:57;;;;;;;8.43;2.87;;;7.90;64.10;;;;;;4999369;28;20452;-52
2021/04/27 07:08:24;;;;;;;4.47;2.30;;;8.00;66.00;;;;;;4996336;28;20462;-51
2021/04/27 07:10:53;;;;;;;6.00;2.30;;;8.00;64.80;;;;;;5007337;28;20775;-53
2021/04/27 07:13:19;;;;;;;5.07;1.80;;;8.10;64.10;;;;;;5008733;28;20500;-54
2021/04/27 07:15:46;;;;;;;6.97;2.40;;;8.10;63.50;;;;;;5009812;28;20461;-54
2021/04/27 07:18:14;;;;;;;5.13;3.40;;;8.20;62.50;;;;;;5008554;28;20434;-53
2021/04/27 07:20:40;;;;;;;4.77;2.23;;;8.30;62.00;;;;;;5007118;28;20454;-55
2021/04/27 07:23:06;;;;;;;3.00;1.47;;;8.40;60.50;;;;;;5010479;28;20473;-51
2021/04/27 07:25:33;;;;;;;6.80;3.40;;;8.50;60.90;;;;;;5013103;28;20457;-51
2021/04/27 07:27:59;;;;;;;7.60;2.33;;;8.60;59.90;;;;;;5019333;28;20893;-54
2021/04/27 07:30:26;;;;;;;6.70;1.93;;;8.70;59.20;;;;;;5022163;28;20467;-53
2021/04/27 07:32:52;;;;;;;4.53;2.00;;;8.80;59.20;;;;;;5021582;28;20476;-53
2021/04/27 07:35:21;;;;;;;3.90;2.63;;;8.90;58.40;;;;;;5021459;28;20917;-55
2021/04/27 07:37:47;;;;;;;5.17;2.50;;;9.10;58.30;;;;;;5020891;28;20894;-52
2021/04/27 07:40:14;;;;;;;9.47;5.90;;;9.20;56.80;;;;;;5021490;28;20461;-53
2021/04/27 07:42:42;;;;;;;4.20;2.10;;;9.30;56.60;;;;;;5021249;28;20476;-53
2021/04/27 07:45:13;;;;;;;3.10;2.10;;;9.40;56.60;;;;;;5020949;28;20785;-55
2021/04/27 07:47:39;;;;;;;4.40;1.70;;;9.70;55.80;;;;;;5021677;28;20456;-53
2021/04/27 07:50:07;;;;;;;2.23;1.57;;;10.50;54.30;;;;;;5020212;28;20440;-50
2021/04/27 07:52:34;;;;;;;4.33;3.20;;;12.00;50.70;;;;;;5019733;28;20826;-52
2021/04/27 07:55:00;;;;;;;9.60;3.93;;;14.00;47.80;;;;;;5018581;28;20464;-50
2021/04/27 07:57:26;;;;;;;3.00;2.10;;;16.10;45.10;;;;;;5018334;28;20461;-53
2021/04/27 07:59:55;;;;;;;3.50;2.07;;;17.80;42.00;;;;;;5017828;28;20449;-54
2021/04/27 08:02:21;;;;;;;5.57;2.27;;;19.50;36.60;;;;;;5017620;28;20473;-52
2021/04/27 08:04:48;;;;;;;3.40;2.30;;;20.90;34.80;;;;;;5017328;28;20461;-55
2021/04/27 08:07:14;;;;;;;2.97;1.70;;;22.10;32.80;;;;;;5017337;28;20444;-54
2021/04/27 08:09:41;;;;;;;3.40;2.43;;;23.20;30.80;;;;;;5016710;28;20547;-55
2021/04/27 08:12:10;;;;;;;3.10;2.20;;;24.10;28.90;;;;;;5016941;28;20480;-52
2021/04/27 08:14:36;;;;;;;4.33;2.73;;;24.50;28.30;;;;;;5016861;28;20464;-53
2021/04/27 08:17:03;;;;;;;6.60;3.40;;;24.80;27.50;;;;;;5016800;28;20596;-54
2021/04/27 08:19:30;;;;;;;4.37;2.87;;;24.90;27.60;;;;;;5016859;28;20441;-51
2021/04/27 08:22:00;;;;;;;3.77;2.10;;;25.40;27.00;;;;;;5016682;28;20861;-50
2021/04/27 08:24:26;;;;;;;2.37;2.10;;;25.60;26.30;;;;;;5016730;28;20764;-51
2021/04/27 08:26:54;;;;;;;5.67;2.40;;;25.70;26.20;;;;;;5016898;28;20436;-51
2021/04/27 08:29:20;;;;;;;3.60;2.80;;;25.90;25.70;;;;;;5016182;28;21004;-50
2021/04/27 08:31:47;;;;;;;3.33;1.90;;;25.70;24.90;;;;;;5016194;28;20449;-53
2021/04/27 08:34:14;;;;;;;2.50;2.27;;;25.60;25.10;;;;;;5016660;28;21061;-54
2021/04/27 08:36:40;;;;;;;2.00;1.87;;;25.70;24.50;;;;;;5017195;28;20449;-55
2021/04/27 08:39:06;;;;;;;3.20;2.27;;;25.60;24.10;;;;;;5016501;28;20941;-54
2021/04/27 08:41:34;;;;;;;3.00;1.77;;;25.60;23.70;;;;;;5016109;28;20484;-54
2021/04/27 08:44:00;;;;;;;6.00;2.80;;;25.60;23.50;;;;;;5016033;28;20464;-56
2021/04/27 08:46:26;;;;;;;6.87;2.80;;;25.60;23.80;;;;;;5016286;28;20460;-51
2021/04/27 08:48:53;;;;;;;5.30;2.60;;;25.60;24.00;;;;;;5016071;28;20802;-55
2021/04/27 08:51:21;;;;;;;3.90;2.83;;;25.50;24.30;;;;;;5015860;28;20497;-51
2021/04/27 08:53:47;;;;;;;3.37;2.20;;;25.50;24.50;;;;;;5015820;28;20460;-49
2021/04/27 08:56:14;;;;;;;2.90;2.00;;;25.60;24.00;;;;;;5016307;28;20769;-50
2021/04/27 08:58:40;;;;;;;2.73;2.33;;;25.50;23.70;;;;;;5016105;28;21063;-55
2021/04/27 09:01:06;;;;;;;2.10;1.90;;;25.30;23.90;;;;;;5015862;28;20456;-50
2021/04/27 09:03:41;;;;;;;2.57;1.73;;;25.30;24.40;;;;;;5015951;28;20457;-53
2021/04/27 09:06:15;;;;;;;5.60;3.77;;;25.30;24.60;;;;;;5015515;28;20965;-53
2021/04/27 09:08:43;;;;;;;3.87;1.90;;;25.20;25.20;;;;;;5015550;28;20456;-50
2021/04/27 09:11:28;;;;;;;2.10;1.90;;;25.50;23.90;;;;;;5015503;28;20779;-54
2021/04/27 09:14:14;;;;;;;4.57;1.87;;;25.90;23.40;;;;;;5015745;28;20453;-55
2021/04/27 09:16:45;;;;;;;2.70;1.90;;;25.90;23.00;;;;;;5015467;28;20448;-51
2021/04/27 09:19:27;;;;;;;2.90;2.07;;;25.80;22.70;;;;;;5015495;28;20556;-50
2021/04/27 09:22:01;;;;;;;2.10;2.00;;;25.60;22.50;;;;;;5015472;28;20806;-51
2021/04/27 09:24:28;;;;;;;2.50;1.90;;;25.40;22.90;;;;;;5015763;28;20469;-55
2021/04/27 09:26:54;;;;;;;3.00;2.10;;;25.40;22.70;;;;;;5015321;28;20441;-52
2021/04/27 09:29:29;;;;;;;3.10;2.00;;;25.40;22.80;;;;;;5014973;28;20481;-54
2021/04/27 09:31:55;;;;;;;2.20;2.00;;;25.70;23.10;;;;;;5015365;28;20464;-54
2021/04/27 09:34:25;;;;;;;3.17;2.23;;;25.60;22.40;;;;;;5015324;28;20460;-54
2021/04/27 09:36:57;;;;;;;3.53;2.30;;;25.60;22.60;;;;;;5015062;28;20454;-52
2021/04/27 09:39:36;;;;;;;2.83;1.67;;;25.30;23.10;;;;;;5015433;28;20460;-55
2021/04/27 09:42:10;;;;;;;2.57;1.87;;;25.20;23.10;;;;;;5015227;28;20472;-53
2021/04/27 09:44:41;;;;;;;2.13;1.70;;;25.20;23.20;;;;;;5015050;28;20506;-53
2021/04/27 09:47:22;;;;;;;2.73;1.87;;;25.00;23.80;;;;;;5014705;28;20444;-53
2021/04/27 09:49:57;;;;;;;2.17;1.80;;;25.10;23.30;;;;;;5015064;28;20482;-48
2021/04/27 09:52:25;;;;;;;4.47;2.03;;;25.00;22.70;;;;;;5015046;28;20445;-56
2021/04/27 09:55:17;;;;;;;1.97;1.73;;;25.00;22.70;;;;;;5015165;28;20456;-51
2021/04/27 09:57:48;;;;;;;2.20;2.00;;;25.20;23.20;;;;;;5014774;28;20440;-50
2021/04/27 10:00:29;;;;;;;5.93;2.23;;;24.80;22.90;;;;;;5014726;28;20776;-53
2021/04/27 10:02:57;;;;;;;3.57;2.07;;;24.40;22.90;;;;;;5014868;28;20492;-53
2021/04/27 10:05:24;;;;;;;2.67;2.20;;;24.20;23.40;;;;;;5014551;28;20457;-54
2021/04/27 10:07:52;;;;;;;1.80;1.63;;;24.20;23.60;;;;;;5014607;28;20453;-55
2021/04/27 10:10:23;;;;;;;10.73;5.60;;;24.20;23.50;;;;;;5014825;28;20787;-55
2021/04/27 10:12:50;;;;;;;11.50;6.47;;;23.80;23.20;;;;;;5014780;28;20457;-54
2021/04/27 10:15:17;;;;;;;5.47;2.40;;;23.30;23.20;;;;;;5014399;28;20472;-55
2021/04/27 10:17:45;;;;;;;3.40;2.57;;;23.30;23.50;;;;;;5014716;28;20441;-52
2021/04/27 10:20:14;;;;;;;4.30;1.77;;;23.20;23.90;;;;;;5014561;28;20465;-52
2021/04/27 10:22:43;;;;;;;3.40;2.03;;;22.80;24.10;;;;;;5014338;28;20517;-51
2021/04/27 10:25:15;;;;;;;2.03;1.77;;;22.50;23.70;;;;;;5014679;28;20449;-50
2021/04/27 10:27:43;;;;;;;3.27;1.93;;;22.20;24.10;;;;;;5014397;28;20964;-54
2021/04/27 10:30:30;;;;;;;1.90;1.70;;;22.10;24.20;;;;;;5014498;28;20543;-52
2021/04/27 10:33:19;;;;;;;2.30;1.87;;;21.90;24.90;;;;;;5014539;28;20507;-54
2021/04/27 10:36:01;;;;;;;1.73;1.63;;;21.60;25.20;;;;;;5014829;28;20451;-52
2021/04/27 10:38:45;;;;;;;3.03;2.10;;;21.20;26.20;;;;;;5012541;28;20488;-52
2021/04/27 10:41:14;;;;;;;2.30;1.60;;;20.90;25.30;;;;;;5014842;28;20835;-56
2021/04/27 10:43:53;;;;;;;2.70;1.83;;;20.60;26.70;;;;;;5014184;28;20449;-55
2021/04/27 10:46:54;;;;;;;5.07;2.30;;;20.40;25.90;;;;;;5015517;28;20804;-52
2021/04/27 10:49:32;;;;;;;3.20;2.50;;;20.20;25.90;;;;;;5014933;28;20475;-49
2021/04/27 10:52:00;;;;;;;3.53;2.03;;;20.00;27.10;;;;;;5015004;28;20492;-49
2021/04/27 10:54:30;;;;;;;3.13;2.27;;;19.70;27.00;;;;;;5014531;28;20444;-54
2021/04/27 10:57:14;;;;;;;3.30;2.30;;;19.50;27.70;;;;;;5016181;28;20794;-53
2021/04/27 10:59:54;;;;;;;2.00;1.60;;;19.20;26.60;;;;;;5019547;28;20499;-48
2021/04/27 11:02:24;;;;;;;2.67;2.00;;;19.20;26.90;;;;;;5019516;28;20492;-48
2021/04/27 11:04:52;;;;;;;2.87;2.10;;;18.70;26.70;;;;;;5019068;28;20437;-49
2021/04/27 11:07:40;;;;;;;3.10;2.20;;;18.50;27.60;;;;;;5019064;28;20449;-53
2021/04/27 11:10:31;;;;;;;4.00;1.60;;;18.40;27.00;;;;;;5018599;28;20453;-53
2021/04/27 11:13:01;;;;;;;4.60;1.97;;;18.20;27.30;;;;;;5018917;28;20433;-57
2021/04/27 11:15:32;;;;;;;3.33;2.23;;;18.20;28.20;;;;;;5018611;28;20445;-52
2021/04/27 11:18:04;;;;;;;2.83;2.20;;;18.20;28.40;;;;;;5018781;28;20486;-54
2021/04/27 11:21:09;;;;;;;1.80;1.70;;;18.10;28.70;;;;;;5018302;28;20874;-55
2021/04/27 11:23:52;;;;;;;2.20;1.90;;;18.10;28.70;;;;;;4978468;28;20949;-52
2021/04/27 11:26:41;;;;;;;8.43;2.20;;;17.70;27.60;;;;;;5017949;28;20492;-52
2021/04/27 11:29:11;;;;;;;2.43;1.70;;;17.40;27.90;;;;;;5018812;28;20485;-51
2021/04/27 11:32:04;;;;;;;2.83;1.93;;;17.40;28.60;;;;;;5019619;28;20437;-51
2021/04/27 11:34:32;;;;;;;4.70;1.83;;;17.30;28.70;;;;;;5018632;28;20495;-51
2021/04/27 11:36:59;;;;;;;2.63;1.83;;;17.10;28.40;;;;;;5019241;28;20445;-49
2021/04/27 11:39:28;;;;;;;4.13;1.97;;;17.00;28.90;;;;;;5018670;28;20551;-52
2021/04/27 11:41:57;;;;;;;2.70;1.80;;;16.90;28.70;;;;;;5018780;28;20476;-50
2021/04/27 11:44:31;;;;;;;3.20;2.10;;;16.80;28.50;;;;;;5018354;28;20540;-52
2021/04/27 11:47:01;;;;;;;7.90;2.10;;;16.70;28.60;;;;;;5018324;28;20519;-51
2021/04/27 11:49:53;;;;;;;2.30;2.10;;;16.60;28.30;;;;;;5018342;28;20914;-53
2021/04/27 11:52:50;;;;;;;2.53;2.03;;;16.50;28.80;;;;;;5018854;28;20449;-48
2021/04/27 11:55:33;;;;;;;3.10;2.13;;;16.30;28.90;;;;;;5019354;28;20441;-53
2021/04/27 11:58:04;;;;;;;4.03;2.10;;;16.40;30.00;;;;;;5017445;28;20540;-53
2021/04/27 12:00:36;;;;;;;3.27;2.57;;;16.50;29.40;;;;;;5018819;28;20480;-53
2021/04/27 12:03:27;;;;;;;2.20;1.90;;;16.50;29.60;;;;;;5018471;28;20472;-50
2021/04/27 12:05:58;;;;;;;2.07;1.60;;;16.50;29.70;;;;;;5018074;28;20499;-54
2021/04/27 12:08:27;;;;;;;2.87;1.80;;;16.40;29.20;;;;;;5017507;28;20519;-50
2021/04/27 12:11:10;;;;;;;2.90;1.60;;;16.30;29.40;;;;;;5018279;28;20511;-53
2021/04/27 12:13:38;;;;;;;3.23;1.53;;;16.30;29.70;;;;;;5018238;28;20452;-52
2021/04/27 12:16:10;;;;;;;6.00;2.33;;;16.20;29.30;;;;;;5017940;28;20457;-53
2021/04/27 12:18:56;;;;;;;2.67;1.90;;;16.30;29.70;;;;;;5018259;28;20467;-54
2021/04/27 12:21:44;;;;;;;3.07;2.03;;;16.30;29.10;;;;;;5018201;28;20456;-52
2021/04/27 12:24:20;;;;;;;2.87;1.67;;;16.30;29.10;;;;;;5018461;28;20469;-55
2021/04/27 12:26:53;;;;;;;3.10;2.23;;;16.40;28.80;;;;;;5018651;28;20441;-54
2021/04/27 12:29:29;;;;;;;4.17;1.50;;;16.30;28.90;;;;;;5019223;28;20485;-49
2021/04/27 12:31:56;;;;;;;4.97;1.90;;;16.30;29.50;;;;;;5018945;28;20909;-54
2021/04/27 12:34:24;;;;;;;3.67;2.80;;;16.30;29.50;;;;;;5019287;28;20459;-52
2021/04/27 12:36:51;;;;;;;2.30;1.90;;;16.30;29.90;;;;;;5019609;28;20460;-53
2021/04/27 12:39:33;;;;;;;10.00;2.27;;;16.30;29.00;;;;;;5019554;28;20895;-53
2021/04/27 12:42:03;;;;;;;6.20;3.20;;;16.20;29.00;;;;;;5019280;28;20493;-52
2021/04/27 12:44:35;;;;;;;1.60;1.40;;;16.20;29.40;;;;;;5019098;28;20464;-50
2021/04/27 12:47:04;;;;;;;7.93;2.40;;;15.90;28.80;;;;;;5018909;28;20453;-49
2021/04/27 12:49:34;;;;;;;3.93;1.90;;;16.00;29.90;;;;;;5018966;28;20519;-46
2021/04/27 12:52:07;;;;;;;4.20;2.43;;;16.00;30.80;;;;;;5019004;28;20768;-53
2021/04/27 12:54:34;;;;;;;4.27;1.97;;;16.10;30.00;;;;;;5018988;28;20883;-51
2021/04/27 12:57:09;;;;;;;2.27;1.70;;;16.20;29.20;;;;;;5019117;28;20943;-51
2021/04/27 12:59:37;;;;;;;2.70;1.60;;;16.30;29.50;;;;;;5019110;28;20437;-49
2021/04/27 13:02:09;;;;;;;2.73;2.20;;;16.30;29.40;;;;;;5018834;28;20576;-51
2021/04/27 13:04:45;;;;;;;6.60;2.50;;;16.40;30.80;;;;;;5018472;28;20453;-53